Fillmore, North Dakota
Current Conditions -  °F | °C
As of 6:55 AM on Friday 19 Dec 2014 (Local Time) from K5H4 Reporting Station
Haze Haze  
Wind Chill: 19°   Ceiling: 200
Heat Index: 27°   Visibility: 2mi
Dew Point: 27°   Wind: 7mph
Humidity: 100%   Direction: 180°S
Pressure: 29.95"   Gusts: NA
Location:  48.0994°N, 99.6793°W
Report Text: K5H4 191255Z AUTO 18006KT 2SM BR OVC002 M03/M03 A2995 RMK AO2
Loading
Personal Weather Stations






























Interactive Weather Map New forecast layout! Learn more

10-Day Weather Forecast

Advertisements
Track Severe Weather on mobile